sensor_id;sensor_type;location;lat;lon;timestamp;P1;durP1;ratioP1;P2;durP2;ratioP2
17993;SDS011;9122;48.406;9.984;2024-03-02T00:01:26;14.53;;;12.13;;
17993;SDS011;9122;48.406;9.984;2024-03-02T00:04:11;14.23;;;12.83;;
17993;SDS011;9122;48.406;9.984;2024-03-02T00:06:55;15.30;;;13.37;;
17993;SDS011;9122;48.406;9.984;2024-03-02T00:09:40;16.03;;;12.90;;
17993;SDS011;9122;48.406;9.984;2024-03-02T00:12:24;17.47;;;14.63;;
17993;SDS011;9122;48.406;9.984;2024-03-02T00:21:08;15.57;;;13.83;;
17993;SDS011;9122;48.406;9.984;2024-03-02T00:23:53;15.47;;;13.87;;
17993;SDS011;9122;48.406;9.984;2024-03-02T00:26:38;15.77;;;13.77;;
17993;SDS011;9122;48.406;9.984;2024-03-02T00:29:22;15.00;;;13.43;;
17993;SDS011;9122;48.406;9.984;2024-03-02T00:32:12;14.30;;;12.80;;
17993;SDS011;9122;48.406;9.984;2024-03-02T00:34:59;14.50;;;13.00;;
17993;SDS011;9122;48.406;9.984;2024-03-02T00:37:43;14.97;;;13.47;;
17993;SDS011;9122;48.406;9.984;2024-03-02T00:40:28;15.47;;;13.70;;
17993;SDS011;9122;48.406;9.984;2024-03-02T00:46:35;16.33;;;14.67;;
17993;SDS011;9122;48.406;9.984;2024-03-02T00:49:24;16.87;;;15.17;;
17993;SDS011;9122;48.406;9.984;2024-03-02T00:52:10;17.37;;;15.33;;
17993;SDS011;9122;48.406;9.984;2024-03-02T00:54:56;15.03;;;13.30;;
17993;SDS011;9122;48.406;9.984;2024-03-02T00:57:41;15.43;;;13.93;;
17993;SDS011;9122;48.406;9.984;2024-03-02T01:00:26;14.67;;;12.93;;
17993;SDS011;9122;48.406;9.984;2024-03-02T01:03:10;14.83;;;13.33;;
17993;SDS011;9122;48.406;9.984;2024-03-02T01:05:54;15.47;;;13.87;;
17993;SDS011;9122;48.406;9.984;2024-03-02T01:08:39;14.43;;;13.03;;
17993;SDS011;9122;48.406;9.984;2024-03-02T01:11:24;16.27;;;14.67;;
17993;SDS011;9122;48.406;9.984;2024-03-02T01:14:08;14.33;;;12.87;;
17993;SDS011;9122;48.406;9.984;2024-03-02T01:16:52;15.33;;;13.27;;
17993;SDS011;9122;48.406;9.984;2024-03-02T01:19:36;15.50;;;13.97;;
17993;SDS011;9122;48.406;9.984;2024-03-02T01:22:22;15.53;;;14.03;;
17993;SDS011;9122;48.406;9.984;2024-03-02T01:25:09;18.37;;;14.70;;
17993;SDS011;9122;48.406;9.984;2024-03-02T01:27:53;15.07;;;13.53;;
17993;SDS011;9122;48.406;9.984;2024-03-02T01:30:38;16.70;;;14.73;;
17993;SDS011;9122;48.406;9.984;2024-03-02T01:33:22;15.40;;;13.93;;
17993;SDS011;9122;48.406;9.984;2024-03-02T01:36:06;14.03;;;12.53;;
17993;SDS011;9122;48.406;9.984;2024-03-02T01:38:52;12.37;;;11.17;;
17993;SDS011;9122;48.406;9.984;2024-03-02T01:41:36;13.43;;;11.77;;
17993;SDS011;9122;48.406;9.984;2024-03-02T01:44:21;16.57;;;14.03;;
17993;SDS011;9122;48.406;9.984;2024-03-02T01:47:05;13.50;;;12.10;;
17993;SDS011;9122;48.406;9.984;2024-03-02T01:49:50;14.50;;;13.13;;
17993;SDS011;9122;48.406;9.984;2024-03-02T01:52:34;14.77;;;13.17;;
17993;SDS011;9122;48.406;9.984;2024-03-02T01:55:18;14.93;;;13.03;;
17993;SDS011;9122;48.406;9.984;2024-03-02T01:58:03;15.17;;;12.77;;
17993;SDS011;9122;48.406;9.984;2024-03-02T02:00:47;14.07;;;12.67;;
17993;SDS011;9122;48.406;9.984;2024-03-02T02:03:31;14.67;;;13.17;;
17993;SDS011;9122;48.406;9.984;2024-03-02T02:06:15;15.00;;;13.40;;
17993;SDS011;9122;48.406;9.984;2024-03-02T02:09:00;15.10;;;13.50;;
17993;SDS011;9122;48.406;9.984;2024-03-02T02:11:46;15.57;;;12.83;;
17993;SDS011;9122;48.406;9.984;2024-03-02T02:14:31;14.93;;;13.10;;
17993;SDS011;9122;48.406;9.984;2024-03-02T02:17:16;14.40;;;12.97;;
17993;SDS011;9122;48.406;9.984;2024-03-02T02:20:00;15.33;;;13.53;;
17993;SDS011;9122;48.406;9.984;2024-03-02T02:25:45;14.53;;;12.93;;
17993;SDS011;9122;48.406;9.984;2024-03-02T02:28:29;16.67;;;14.67;;
17993;SDS011;9122;48.406;9.984;2024-03-02T02:31:14;16.97;;;14.10;;
17993;SDS011;9122;48.406;9.984;2024-03-02T02:33:58;19.93;;;16.23;;
17993;SDS011;9122;48.406;9.984;2024-03-02T02:36:43;20.67;;;17.10;;
17993;SDS011;9122;48.406;9.984;2024-03-02T02:39:27;19.53;;;16.67;;
17993;SDS011;9122;48.406;9.984;2024-03-02T02:42:12;19.73;;;15.80;;
17993;SDS011;9122;48.406;9.984;2024-03-02T02:44:57;22.77;;;15.83;;
17993;SDS011;9122;48.406;9.984;2024-03-02T02:47:41;21.83;;;16.43;;
17993;SDS011;9122;48.406;9.984;2024-03-02T02:50:26;21.67;;;16.03;;
17993;SDS011;9122;48.406;9.984;2024-03-02T02:53:11;18.67;;;15.37;;
17993;SDS011;9122;48.406;9.984;2024-03-02T02:55:55;19.53;;;16.77;;
17993;SDS011;9122;48.406;9.984;2024-03-02T02:58:40;18.13;;;15.27;;
17993;SDS011;9122;48.406;9.984;2024-03-02T03:01:45;21.57;;;16.13;;
17993;SDS011;9122;48.406;9.984;2024-03-02T03:04:30;29.50;;;17.37;;
17993;SDS011;9122;48.406;9.984;2024-03-02T03:07:14;18.63;;;16.60;;
17993;SDS011;9122;48.406;9.984;2024-03-02T03:09:58;20.07;;;17.07;;
17993;SDS011;9122;48.406;9.984;2024-03-02T03:12:43;19.37;;;16.13;;
17993;SDS011;9122;48.406;9.984;2024-03-02T03:15:28;21.57;;;16.33;;
17993;SDS011;9122;48.406;9.984;2024-03-02T03:18:12;19.77;;;16.00;;
17993;SDS011;9122;48.406;9.984;2024-03-02T03:20:56;24.77;;;18.30;;
17993;SDS011;9122;48.406;9.984;2024-03-02T03:23:41;20.87;;;17.17;;
17993;SDS011;9122;48.406;9.984;2024-03-02T03:26:25;21.37;;;17.33;;
17993;SDS011;9122;48.406;9.984;2024-03-02T03:29:09;23.07;;;16.67;;
17993;SDS011;9122;48.406;9.984;2024-03-02T03:31:53;19.97;;;16.60;;
17993;SDS011;9122;48.406;9.984;2024-03-02T03:34:37;19.57;;;16.47;;
17993;SDS011;9122;48.406;9.984;2024-03-02T03:37:21;23.07;;;18.33;;
17993;SDS011;9122;48.406;9.984;2024-03-02T03:40:06;22.83;;;18.00;;
17993;SDS011;9122;48.406;9.984;2024-03-02T03:42:53;27.27;;;18.97;;
17993;SDS011;9122;48.406;9.984;2024-03-02T03:45:39;22.77;;;17.53;;
17993;SDS011;9122;48.406;9.984;2024-03-02T03:48:24;19.80;;;17.53;;
17993;SDS011;9122;48.406;9.984;2024-03-02T03:51:14;18.73;;;16.73;;
17993;SDS011;9122;48.406;9.984;2024-03-02T03:53:58;21.17;;;16.00;;
17993;SDS011;9122;48.406;9.984;2024-03-02T03:56:42;21.23;;;17.57;;
17993;SDS011;9122;48.406;9.984;2024-03-02T03:59:27;18.73;;;16.60;;
17993;SDS011;9122;48.406;9.984;2024-03-02T04:02:12;19.80;;;17.67;;
17993;SDS011;9122;48.406;9.984;2024-03-02T04:04:56;17.80;;;15.77;;
17993;SDS011;9122;48.406;9.984;2024-03-02T04:07:40;18.23;;;16.33;;
17993;SDS011;9122;48.406;9.984;2024-03-02T04:10:26;18.53;;;16.57;;
17993;SDS011;9122;48.406;9.984;2024-03-02T04:13:10;18.17;;;16.27;;
17993;SDS011;9122;48.406;9.984;2024-03-02T04:15:55;18.50;;;16.50;;
17993;SDS011;9122;48.406;9.984;2024-03-02T04:18:39;21.47;;;16.33;;
17993;SDS011;9122;48.406;9.984;2024-03-02T04:21:23;19.27;;;16.17;;
17993;SDS011;9122;48.406;9.984;2024-03-02T04:24:07;20.67;;;17.50;;
17993;SDS011;9122;48.406;9.984;2024-03-02T04:26:52;19.30;;;17.30;;
17993;SDS011;9122;48.406;9.984;2024-03-02T04:29:36;17.70;;;15.93;;
17993;SDS011;9122;48.406;9.984;2024-03-02T04:32:20;19.93;;;15.00;;
17993;SDS011;9122;48.406;9.984;2024-03-02T04:35:04;19.67;;;15.80;;
17993;SDS011;9122;48.406;9.984;2024-03-02T04:37:52;20.07;;;17.73;;
17993;SDS011;9122;48.406;9.984;2024-03-02T04:40:36;23.80;;;17.70;;
17993;SDS011;9122;48.406;9.984;2024-03-02T04:43:20;20.93;;;17.40;;
17993;SDS011;9122;48.406;9.984;2024-03-02T04:46:05;22.10;;;18.00;;
17993;SDS011;9122;48.406;9.984;2024-03-02T04:48:51;20.07;;;17.30;;
17993;SDS011;9122;48.406;9.984;2024-03-02T04:51:39;19.73;;;17.17;;
17993;SDS011;9122;48.406;9.984;2024-03-02T04:54:23;20.43;;;17.93;;
17993;SDS011;9122;48.406;9.984;2024-03-02T04:57:08;18.93;;;16.83;;
17993;SDS011;9122;48.406;9.984;2024-03-02T04:59:52;17.83;;;15.97;;
17993;SDS011;9122;48.406;9.984;2024-03-02T05:02:36;20.77;;;16.97;;
17993;SDS011;9122;48.406;9.984;2024-03-02T05:05:20;19.40;;;17.33;;
17993;SDS011;9122;48.406;9.984;2024-03-02T05:08:04;18.70;;;16.30;;
17993;SDS011;9122;48.406;9.984;2024-03-02T05:10:49;17.83;;;16.03;;
17993;SDS011;9122;48.406;9.984;2024-03-02T05:13:33;16.53;;;14.87;;
17993;SDS011;9122;48.406;9.984;2024-03-02T05:16:18;17.53;;;15.33;;
17993;SDS011;9122;48.406;9.984;2024-03-02T05:19:02;17.27;;;15.33;;
17993;SDS011;9122;48.406;9.984;2024-03-02T05:21:46;16.50;;;14.83;;
17993;SDS011;9122;48.406;9.984;2024-03-02T05:24:30;15.97;;;14.30;;
17993;SDS011;9122;48.406;9.984;2024-03-02T05:27:15;15.53;;;13.93;;
17993;SDS011;9122;48.406;9.984;2024-03-02T05:29:59;15.90;;;14.30;;
17993;SDS011;9122;48.406;9.984;2024-03-02T05:32:44;17.10;;;15.30;;
17993;SDS011;9122;48.406;9.984;2024-03-02T05:35:28;19.67;;;15.60;;
17993;SDS011;9122;48.406;9.984;2024-03-02T05:38:12;17.60;;;15.33;;
17993;SDS011;9122;48.406;9.984;2024-03-02T05:40:56;17.03;;;15.23;;
17993;SDS011;9122;48.406;9.984;2024-03-02T05:43:40;19.57;;;14.83;;
17993;SDS011;9122;48.406;9.984;2024-03-02T05:46:24;19.47;;;16.00;;
17993;SDS011;9122;48.406;9.984;2024-03-02T05:49:08;21.93;;;16.73;;
17993;SDS011;9122;48.406;9.984;2024-03-02T05:51:53;17.70;;;15.90;;
17993;SDS011;9122;48.406;9.984;2024-03-02T05:54:38;19.53;;;16.13;;
17993;SDS011;9122;48.406;9.984;2024-03-02T05:57:22;19.07;;;16.13;;
17993;SDS011;9122;48.406;9.984;2024-03-02T06:00:22;19.10;;;16.23;;
17993;SDS011;9122;48.406;9.984;2024-03-02T06:03:06;19.20;;;17.20;;
17993;SDS011;9122;48.406;9.984;2024-03-02T06:05:53;19.30;;;17.17;;
17993;SDS011;9122;48.406;9.984;2024-03-02T06:08:38;18.27;;;16.23;;
17993;SDS011;9122;48.406;9.984;2024-03-02T06:11:23;18.53;;;16.53;;
17993;SDS011;9122;48.406;9.984;2024-03-02T06:14:07;19.43;;;16.53;;
17993;SDS011;9122;48.406;9.984;2024-03-02T06:16:52;17.60;;;15.77;;
17993;SDS011;9122;48.406;9.984;2024-03-02T06:19:36;18.27;;;16.37;;
17993;SDS011;9122;48.406;9.984;2024-03-02T06:22:23;18.40;;;16.47;;
17993;SDS011;9122;48.406;9.984;2024-03-02T06:25:08;18.53;;;16.43;;
17993;SDS011;9122;48.406;9.984;2024-03-02T06:27:53;18.60;;;16.10;;
17993;SDS011;9122;48.406;9.984;2024-03-02T06:30:37;18.77;;;16.77;;
17993;SDS011;9122;48.406;9.984;2024-03-02T06:33:22;19.00;;;16.33;;
17993;SDS011;9122;48.406;9.984;2024-03-02T06:36:06;19.60;;;16.17;;
17993;SDS011;9122;48.406;9.984;2024-03-02T06:38:55;19.67;;;17.33;;
17993;SDS011;9122;48.406;9.984;2024-03-02T06:41:39;18.47;;;15.70;;
17993;SDS011;9122;48.406;9.984;2024-03-02T06:44:23;18.77;;;16.00;;
17993;SDS011;9122;48.406;9.984;2024-03-02T06:47:08;19.10;;;16.33;;
17993;SDS011;9122;48.406;9.984;2024-03-02T06:49:52;20.13;;;15.97;;
17993;SDS011;9122;48.406;9.984;2024-03-02T06:52:37;19.53;;;15.83;;
17993;SDS011;9122;48.406;9.984;2024-03-02T06:55:22;22.47;;;16.93;;
17993;SDS011;9122;48.406;9.984;2024-03-02T06:58:08;22.87;;;18.27;;
17993;SDS011;9122;48.406;9.984;2024-03-02T07:00:52;28.73;;;18.37;;
17993;SDS011;9122;48.406;9.984;2024-03-02T07:03:37;29.33;;;19.37;;
17993;SDS011;9122;48.406;9.984;2024-03-02T07:06:23;28.27;;;18.10;;
17993;SDS011;9122;48.406;9.984;2024-03-02T07:09:07;25.37;;;17.53;;
17993;SDS011;9122;48.406;9.984;2024-03-02T07:11:54;20.03;;;16.57;;
17993;SDS011;9122;48.406;9.984;2024-03-02T07:14:38;20.97;;;16.63;;
17993;SDS011;9122;48.406;9.984;2024-03-02T07:17:40;18.93;;;15.83;;
17993;SDS011;9122;48.406;9.984;2024-03-02T07:20:32;23.20;;;16.43;;
17993;SDS011;9122;48.406;9.984;2024-03-02T07:23:16;22.53;;;16.90;;
17993;SDS011;9122;48.406;9.984;2024-03-02T07:26:01;21.37;;;15.67;;
17993;SDS011;9122;48.406;9.984;2024-03-02T07:28:45;21.07;;;16.43;;
17993;SDS011;9122;48.406;9.984;2024-03-02T07:31:31;21.77;;;16.77;;
17993;SDS011;9122;48.406;9.984;2024-03-02T07:34:15;19.40;;;15.90;;
17993;SDS011;9122;48.406;9.984;2024-03-02T07:37:00;19.40;;;16.17;;
17993;SDS011;9122;48.406;9.984;2024-03-02T07:39:45;20.13;;;15.93;;
17993;SDS011;9122;48.406;9.984;2024-03-02T07:42:29;21.50;;;16.37;;
17993;SDS011;9122;48.406;9.984;2024-03-02T07:45:14;21.33;;;15.37;;
17993;SDS011;9122;48.406;9.984;2024-03-02T07:47:59;23.40;;;17.53;;
17993;SDS011;9122;48.406;9.984;2024-03-02T07:50:43;20.30;;;15.73;;
17993;SDS011;9122;48.406;9.984;2024-03-02T07:53:28;17.73;;;15.37;;
17993;SDS011;9122;48.406;9.984;2024-03-02T07:56:12;20.57;;;16.47;;
17993;SDS011;9122;48.406;9.984;2024-03-02T07:58:58;23.80;;;17.13;;
17993;SDS011;9122;48.406;9.984;2024-03-02T08:01:44;26.07;;;17.50;;
17993;SDS011;9122;48.406;9.984;2024-03-02T08:04:29;24.60;;;18.53;;
17993;SDS011;9122;48.406;9.984;2024-03-02T08:07:14;24.47;;;17.67;;
17993;SDS011;9122;48.406;9.984;2024-03-02T08:09:58;25.17;;;17.97;;
17993;SDS011;9122;48.406;9.984;2024-03-02T08:12:42;24.90;;;18.10;;
17993;SDS011;9122;48.406;9.984;2024-03-02T08:15:30;22.43;;;16.60;;
17993;SDS011;9122;48.406;9.984;2024-03-02T08:18:14;17.57;;;15.40;;
17993;SDS011;9122;48.406;9.984;2024-03-02T08:20:58;18.10;;;14.77;;
17993;SDS011;9122;48.406;9.984;2024-03-02T08:23:44;19.73;;;16.10;;
17993;SDS011;9122;48.406;9.984;2024-03-02T08:26:28;16.97;;;14.73;;
17993;SDS011;9122;48.406;9.984;2024-03-02T08:29:16;18.57;;;15.80;;
17993;SDS011;9122;48.406;9.984;2024-03-02T08:32:01;20.57;;;15.73;;
17993;SDS011;9122;48.406;9.984;2024-03-02T08:34:46;20.70;;;15.90;;
17993;SDS011;9122;48.406;9.984;2024-03-02T08:37:30;22.23;;;16.23;;
17993;SDS011;9122;48.406;9.984;2024-03-02T08:40:14;20.63;;;15.60;;
17993;SDS011;9122;48.406;9.984;2024-03-02T08:42:59;22.30;;;16.87;;
17993;SDS011;9122;48.406;9.984;2024-03-02T08:45:44;21.03;;;16.27;;
17993;SDS011;9122;48.406;9.984;2024-03-02T08:48:29;21.13;;;16.13;;
17993;SDS011;9122;48.406;9.984;2024-03-02T08:51:13;29.50;;;17.83;;
17993;SDS011;9122;48.406;9.984;2024-03-02T08:53:58;26.63;;;19.43;;
17993;SDS011;9122;48.406;9.984;2024-03-02T08:56:43;30.30;;;18.73;;
17993;SDS011;9122;48.406;9.984;2024-03-02T08:59:27;21.73;;;17.13;;
17993;SDS011;9122;48.406;9.984;2024-03-02T09:02:12;21.77;;;16.87;;
17993;SDS011;9122;48.406;9.984;2024-03-02T09:04:56;24.00;;;17.47;;
17993;SDS011;9122;48.406;9.984;2024-03-02T09:07:41;23.50;;;17.67;;
17993;SDS011;9122;48.406;9.984;2024-03-02T09:10:25;21.47;;;16.20;;
17993;SDS011;9122;48.406;9.984;2024-03-02T09:13:09;22.60;;;17.43;;
17993;SDS011;9122;48.406;9.984;2024-03-02T09:15:54;24.27;;;17.63;;
17993;SDS011;9122;48.406;9.984;2024-03-02T09:18:38;22.83;;;16.90;;
17993;SDS011;9122;48.406;9.984;2024-03-02T09:21:23;18.57;;;15.17;;
17993;SDS011;9122;48.406;9.984;2024-03-02T09:24:09;19.60;;;15.53;;
17993;SDS011;9122;48.406;9.984;2024-03-02T09:26:54;20.27;;;15.03;;
17993;SDS011;9122;48.406;9.984;2024-03-02T09:29:38;19.30;;;14.23;;
17993;SDS011;9122;48.406;9.984;2024-03-02T09:32:22;19.00;;;15.93;;
17993;SDS011;9122;48.406;9.984;2024-03-02T09:35:07;20.33;;;16.40;;
17993;SDS011;9122;48.406;9.984;2024-03-02T09:37:52;22.77;;;16.93;;
17993;SDS011;9122;48.406;9.984;2024-03-02T09:40:36;18.40;;;15.40;;
17993;SDS011;9122;48.406;9.984;2024-03-02T09:43:21;18.70;;;15.07;;
17993;SDS011;9122;48.406;9.984;2024-03-02T09:46:05;17.10;;;14.37;;
17993;SDS011;9122;48.406;9.984;2024-03-02T09:48:52;17.07;;;14.50;;
17993;SDS011;9122;48.406;9.984;2024-03-02T09:51:37;16.27;;;14.57;;
17993;SDS011;9122;48.406;9.984;2024-03-02T09:54:21;17.40;;;15.53;;
17993;SDS011;9122;48.406;9.984;2024-03-02T09:57:06;17.60;;;14.93;;
17993;SDS011;9122;48.406;9.984;2024-03-02T09:59:51;18.33;;;15.20;;
17993;SDS011;9122;48.406;9.984;2024-03-02T10:02:35;19.03;;;15.83;;
17993;SDS011;9122;48.406;9.984;2024-03-02T10:05:23;17.53;;;15.63;;
17993;SDS011;9122;48.406;9.984;2024-03-02T10:08:09;20.03;;;15.53;;
17993;SDS011;9122;48.406;9.984;2024-03-02T10:10:53;16.70;;;14.83;;
17993;SDS011;9122;48.406;9.984;2024-03-02T10:13:38;14.23;;;12.77;;
17993;SDS011;9122;48.406;9.984;2024-03-02T10:16:22;16.83;;;14.13;;
17993;SDS011;9122;48.406;9.984;2024-03-02T10:22:05;14.00;;;12.53;;
17993;SDS011;9122;48.406;9.984;2024-03-02T10:24:51;14.60;;;13.10;;
17993;SDS011;9122;48.406;9.984;2024-03-02T10:27:36;13.70;;;12.30;;
17993;SDS011;9122;48.406;9.984;2024-03-02T10:30:21;15.47;;;13.87;;
17993;SDS011;9122;48.406;9.984;2024-03-02T10:33:05;13.27;;;11.97;;
17993;SDS011;9122;48.406;9.984;2024-03-02T10:35:50;14.93;;;13.40;;
17993;SDS011;9122;48.406;9.984;2024-03-02T10:38:35;13.47;;;12.07;;
17993;SDS011;9122;48.406;9.984;2024-03-02T10:41:23;12.30;;;11.10;;
17993;SDS011;9122;48.406;9.984;2024-03-02T10:44:08;12.70;;;11.17;;
17993;SDS011;9122;48.406;9.984;2024-03-02T10:46:55;13.10;;;10.90;;
17993;SDS011;9122;48.406;9.984;2024-03-02T10:49:44;12.23;;;10.93;;
17993;SDS011;9122;48.406;9.984;2024-03-02T10:52:32;11.40;;;10.30;;
17993;SDS011;9122;48.406;9.984;2024-03-02T10:55:16;11.87;;;10.50;;
17993;SDS011;9122;48.406;9.984;2024-03-02T10:58:04;11.07;;;9.90;;
17993;SDS011;9122;48.406;9.984;2024-03-02T11:00:50;11.47;;;10.27;;
17993;SDS011;9122;48.406;9.984;2024-03-02T11:03:35;10.13;;;9.20;;
17993;SDS011;9122;48.406;9.984;2024-03-02T11:06:23;11.30;;;10.20;;
17993;SDS011;9122;48.406;9.984;2024-03-02T11:09:10;11.30;;;10.20;;
17993;SDS011;9122;48.406;9.984;2024-03-02T11:12:02;11.93;;;10.43;;
17993;SDS011;9122;48.406;9.984;2024-03-02T11:14:53;11.63;;;10.53;;
17993;SDS011;9122;48.406;9.984;2024-03-02T11:17:39;12.57;;;11.37;;
17993;SDS011;9122;48.406;9.984;2024-03-02T11:20:24;11.57;;;10.47;;
17993;SDS011;9122;48.406;9.984;2024-03-02T11:23:10;11.57;;;10.53;;
17993;SDS011;9122;48.406;9.984;2024-03-02T11:26:40;12.77;;;11.57;;
17993;SDS011;9122;48.406;9.984;2024-03-02T11:29:05;12.87;;;11.50;;
17993;SDS011;9122;48.406;9.984;2024-03-02T11:31:57;11.40;;;10.30;;
17993;SDS011;9122;48.406;9.984;2024-03-02T11:34:45;10.57;;;9.67;;
17993;SDS011;9122;48.406;9.984;2024-03-02T11:37:30;9.67;;;8.77;;
17993;SDS011;9122;48.406;9.984;2024-03-02T11:40:14;9.23;;;8.43;;
17993;SDS011;9122;48.406;9.984;2024-03-02T11:43:06;9.87;;;8.97;;
17993;SDS011;9122;48.406;9.984;2024-03-02T11:45:56;9.20;;;7.87;;
17993;SDS011;9122;48.406;9.984;2024-03-02T11:48:42;8.20;;;7.40;;
17993;SDS011;9122;48.406;9.984;2024-03-02T11:51:32;6.93;;;6.33;;
17993;SDS011;9122;48.406;9.984;2024-03-02T11:54:18;6.67;;;6.07;;
17993;SDS011;9122;48.406;9.984;2024-03-02T11:57:03;5.20;;;4.80;;
17993;SDS011;9122;48.406;9.984;2024-03-02T11:59:47;4.33;;;4.03;;
17993;SDS011;9122;48.406;9.984;2024-03-02T12:02:36;5.13;;;4.63;;
17993;SDS011;9122;48.406;9.984;2024-03-02T12:05:21;5.20;;;4.80;;
17993;SDS011;9122;48.406;9.984;2024-03-02T12:08:06;6.40;;;5.90;;
17993;SDS011;9122;48.406;9.984;2024-03-02T12:11:01;5.67;;;5.27;;
17993;SDS011;9122;48.406;9.984;2024-03-02T12:13:52;5.93;;;5.53;;
17993;SDS011;9122;48.406;9.984;2024-03-02T12:16:44;5.90;;;5.43;;
17993;SDS011;9122;48.406;9.984;2024-03-02T12:19:29;6.77;;;6.20;;
17993;SDS011;9122;48.406;9.984;2024-03-02T12:22:14;6.80;;;6.20;;
17993;SDS011;9122;48.406;9.984;2024-03-02T12:24:59;7.40;;;6.73;;
17993;SDS011;9122;48.406;9.984;2024-03-02T12:27:45;6.93;;;6.37;;
17993;SDS011;9122;48.406;9.984;2024-03-02T12:30:31;8.30;;;7.60;;
17993;SDS011;9122;48.406;9.984;2024-03-02T12:33:19;9.00;;;8.10;;
17993;SDS011;9122;48.406;9.984;2024-03-02T12:36:04;8.67;;;7.97;;
17993;SDS011;9122;48.406;9.984;2024-03-02T12:38:48;8.20;;;7.50;;
17993;SDS011;9122;48.406;9.984;2024-03-02T12:41:37;9.30;;;8.40;;
17993;SDS011;9122;48.406;9.984;2024-03-02T12:44:21;9.07;;;8.27;;
17993;SDS011;9122;48.406;9.984;2024-03-02T12:47:05;9.23;;;8.47;;
17993;SDS011;9122;48.406;9.984;2024-03-02T12:49:50;9.03;;;8.13;;
17993;SDS011;9122;48.406;9.984;2024-03-02T12:52:38;6.97;;;6.47;;
17993;SDS011;9122;48.406;9.984;2024-03-02T12:55:22;8.07;;;7.37;;
17993;SDS011;9122;48.406;9.984;2024-03-02T12:58:07;7.73;;;7.03;;
17993;SDS011;9122;48.406;9.984;2024-03-02T13:01:05;8.17;;;7.23;;
17993;SDS011;9122;48.406;9.984;2024-03-02T13:03:51;7.37;;;6.87;;
17993;SDS011;9122;48.406;9.984;2024-03-02T13:06:38;7.07;;;6.43;;
17993;SDS011;9122;48.406;9.984;2024-03-02T13:09:23;8.27;;;7.03;;
17993;SDS011;9122;48.406;9.984;2024-03-02T13:12:08;8.20;;;7.50;;
17993;SDS011;9122;48.406;9.984;2024-03-02T13:14:55;7.27;;;6.67;;
17993;SDS011;9122;48.406;9.984;2024-03-02T13:17:41;7.53;;;6.93;;
17993;SDS011;9122;48.406;9.984;2024-03-02T13:20:29;7.90;;;7.23;;
17993;SDS011;9122;48.406;9.984;2024-03-02T13:23:15;6.97;;;6.47;;
17993;SDS011;9122;48.406;9.984;2024-03-02T13:26:00;6.90;;;6.33;;
17993;SDS011;9122;48.406;9.984;2024-03-02T13:28:45;7.63;;;7.03;;
17993;SDS011;9122;48.406;9.984;2024-03-02T13:31:29;8.37;;;7.60;;
17993;SDS011;9122;48.406;9.984;2024-03-02T13:34:13;8.07;;;7.43;;
17993;SDS011;9122;48.406;9.984;2024-03-02T13:36:57;8.53;;;7.83;;
17993;SDS011;9122;48.406;9.984;2024-03-02T13:39:42;7.87;;;7.27;;
17993;SDS011;9122;48.406;9.984;2024-03-02T13:42:27;8.50;;;7.77;;
17993;SDS011;9122;48.406;9.984;2024-03-02T13:45:11;7.50;;;6.90;;
17993;SDS011;9122;48.406;9.984;2024-03-02T13:47:55;7.53;;;6.93;;
17993;SDS011;9122;48.406;9.984;2024-03-02T13:50:40;7.77;;;7.17;;
17993;SDS011;9122;48.406;9.984;2024-03-02T13:53:24;7.53;;;6.83;;
17993;SDS011;9122;48.406;9.984;2024-03-02T13:56:08;7.83;;;7.23;;
17993;SDS011;9122;48.406;9.984;2024-03-02T13:58:53;8.13;;;7.50;;
17993;SDS011;9122;48.406;9.984;2024-03-02T14:01:38;7.73;;;7.13;;
17993;SDS011;9122;48.406;9.984;2024-03-02T14:04:22;7.70;;;7.10;;
17993;SDS011;9122;48.406;9.984;2024-03-02T14:07:07;8.10;;;7.40;;
17993;SDS011;9122;48.406;9.984;2024-03-02T14:09:51;6.53;;;6.07;;
17993;SDS011;9122;48.406;9.984;2024-03-02T14:12:36;7.00;;;6.50;;
17993;SDS011;9122;48.406;9.984;2024-03-02T14:15:21;6.60;;;6.00;;
17993;SDS011;9122;48.406;9.984;2024-03-02T14:18:06;7.13;;;6.53;;
17993;SDS011;9122;48.406;9.984;2024-03-02T14:20:50;7.13;;;6.50;;
17993;SDS011;9122;48.406;9.984;2024-03-02T14:23:36;6.73;;;6.23;;
17993;SDS011;9122;48.406;9.984;2024-03-02T14:26:20;6.23;;;5.63;;
17993;SDS011;9122;48.406;9.984;2024-03-02T14:29:04;6.50;;;6.00;;
17993;SDS011;9122;48.406;9.984;2024-03-02T14:31:49;6.13;;;5.63;;
17993;SDS011;9122;48.406;9.984;2024-03-02T14:34:33;5.83;;;5.43;;
17993;SDS011;9122;48.406;9.984;2024-03-02T14:37:18;6.33;;;5.83;;
17993;SDS011;9122;48.406;9.984;2024-03-02T14:40:03;6.47;;;5.97;;
17993;SDS011;9122;48.406;9.984;2024-03-02T14:42:50;5.03;;;4.73;;
17993;SDS011;9122;48.406;9.984;2024-03-02T14:45:34;5.40;;;4.97;;
17993;SDS011;9122;48.406;9.984;2024-03-02T14:48:18;4.97;;;4.63;;
17993;SDS011;9122;48.406;9.984;2024-03-02T14:51:03;4.60;;;4.30;;
17993;SDS011;9122;48.406;9.984;2024-03-02T14:53:48;5.30;;;4.90;;
17993;SDS011;9122;48.406;9.984;2024-03-02T14:56:32;5.37;;;4.90;;
17993;SDS011;9122;48.406;9.984;2024-03-02T14:59:16;5.20;;;4.70;;
17993;SDS011;9122;48.406;9.984;2024-03-02T15:02:01;5.93;;;5.53;;
17993;SDS011;9122;48.406;9.984;2024-03-02T15:04:45;6.83;;;6.23;;
17993;SDS011;9122;48.406;9.984;2024-03-02T15:07:31;6.70;;;5.60;;
17993;SDS011;9122;48.406;9.984;2024-03-02T15:10:16;6.23;;;5.73;;
17993;SDS011;9122;48.406;9.984;2024-03-02T15:13:01;7.17;;;6.37;;
17993;SDS011;9122;48.406;9.984;2024-03-02T15:15:45;6.07;;;5.53;;
17993;SDS011;9122;48.406;9.984;2024-03-02T15:18:30;6.43;;;5.83;;
17993;SDS011;9122;48.406;9.984;2024-03-02T15:21:14;7.13;;;6.43;;
17993;SDS011;9122;48.406;9.984;2024-03-02T15:23:58;6.47;;;5.90;;
17993;SDS011;9122;48.406;9.984;2024-03-02T15:26:43;6.23;;;5.73;;
17993;SDS011;9122;48.406;9.984;2024-03-02T15:29:27;6.93;;;6.20;;
17993;SDS011;9122;48.406;9.984;2024-03-02T15:32:12;6.60;;;5.93;;
17993;SDS011;9122;48.406;9.984;2024-03-02T15:34:56;6.70;;;6.10;;
17993;SDS011;9122;48.406;9.984;2024-03-02T15:37:41;6.60;;;6.07;;
17993;SDS011;9122;48.406;9.984;2024-03-02T15:40:26;7.13;;;6.53;;
17993;SDS011;9122;48.406;9.984;2024-03-02T15:43:10;6.50;;;5.90;;
17993;SDS011;9122;48.406;9.984;2024-03-02T15:45:54;6.80;;;6.17;;
17993;SDS011;9122;48.406;9.984;2024-03-02T15:48:43;5.77;;;5.27;;
17993;SDS011;9122;48.406;9.984;2024-03-02T15:51:30;6.20;;;5.47;;
17993;SDS011;9122;48.406;9.984;2024-03-02T15:54:14;6.57;;;5.97;;
17993;SDS011;9122;48.406;9.984;2024-03-02T15:56:58;7.53;;;6.83;;
17993;SDS011;9122;48.406;9.984;2024-03-02T15:59:43;8.00;;;6.27;;
17993;SDS011;9122;48.406;9.984;2024-03-02T16:02:29;7.73;;;6.93;;
17993;SDS011;9122;48.406;9.984;2024-03-02T16:05:13;9.63;;;7.80;;
17993;SDS011;9122;48.406;9.984;2024-03-02T16:07:58;7.93;;;7.23;;
17993;SDS011;9122;48.406;9.984;2024-03-02T16:10:42;8.80;;;7.90;;
17993;SDS011;9122;48.406;9.984;2024-03-02T16:13:26;9.37;;;8.37;;
17993;SDS011;9122;48.406;9.984;2024-03-02T16:16:11;10.07;;;9.17;;
17993;SDS011;9122;48.406;9.984;2024-03-02T16:18:56;10.33;;;9.33;;
17993;SDS011;9122;48.406;9.984;2024-03-02T16:21:40;9.97;;;8.97;;
17993;SDS011;9122;48.406;9.984;2024-03-02T16:24:24;10.40;;;9.27;;
17993;SDS011;9122;48.406;9.984;2024-03-02T16:27:08;10.60;;;9.23;;
17993;SDS011;9122;48.406;9.984;2024-03-02T16:29:53;10.87;;;9.77;;
17993;SDS011;9122;48.406;9.984;2024-03-02T16:32:38;13.27;;;10.40;;
17993;SDS011;9122;48.406;9.984;2024-03-02T16:35:22;11.50;;;10.07;;
17993;SDS011;9122;48.406;9.984;2024-03-02T16:38:07;10.67;;;9.67;;
17993;SDS011;9122;48.406;9.984;2024-03-02T16:40:52;13.20;;;10.47;;
17993;SDS011;9122;48.406;9.984;2024-03-02T16:43:36;13.03;;;10.80;;
17993;SDS011;9122;48.406;9.984;2024-03-02T16:46:20;13.50;;;11.03;;